createdAt,value
2023-01-15T00:02:25.486Z,99802.34
2023-01-15T00:05:03.107Z,99797.92
2023-01-15T00:07:34.370Z,99797.67
2023-01-15T00:10:10.368Z,99776.79
2023-01-15T00:12:45.187Z,99778.23
2023-01-15T00:15:17.488Z,99781.73
2023-01-15T00:17:49.271Z,99785.99
2023-01-15T00:20:21.785Z,99781.20
2023-01-15T00:22:54.450Z,99766.29
2023-01-15T00:25:43.396Z,99760.63
2023-01-15T00:28:17.601Z,99741.69
2023-01-15T00:30:48.982Z,99734.55
2023-01-15T00:33:21.429Z,99729.33
2023-01-15T00:35:54.059Z,99713.60
2023-01-15T00:38:29.687Z,99729.70
2023-01-15T00:41:02.619Z,99734.35
2023-01-15T00:43:34.529Z,99747.61
2023-01-15T00:46:08.993Z,99755.87
2023-01-15T00:48:44.604Z,99760.30
2023-01-15T00:51:16.617Z,99760.85
2023-01-15T00:53:47.337Z,99757.67
2023-01-15T00:56:18.513Z,99755.04
2023-01-15T00:58:49.553Z,99754.51
2023-01-15T01:01:21.673Z,99750.21
2023-01-15T01:03:56.581Z,99743.16
2023-01-15T01:06:27.570Z,99734.41
2023-01-15T01:09:00.444Z,99732.13
2023-01-15T01:11:34.466Z,99721.20
2023-01-15T01:14:06.506Z,99697.98
2023-01-15T01:16:42.356Z,99689.39
2023-01-15T01:19:17.763Z,99686.90
2023-01-15T01:21:49.525Z,99679.77
2023-01-15T01:24:22.652Z,99678.84
2023-01-15T01:26:54.749Z,99674.52
2023-01-15T01:29:27.687Z,99674.64
2023-01-15T01:31:59.133Z,99658.60
2023-01-15T01:34:32.794Z,99647.13
2023-01-15T01:37:05.564Z,99651.85
2023-01-15T01:39:36.952Z,99663.80
2023-01-15T01:42:14.965Z,99682.29
2023-01-15T01:45:07.827Z,99679.45
2023-01-15T01:47:39.735Z,99676.25
2023-01-15T01:50:16.829Z,99666.18
2023-01-15T01:52:53.923Z,99660.25
2023-01-15T01:55:27.427Z,99643.07
2023-01-15T01:58:04.197Z,99644.92
2023-01-15T02:00:36.812Z,99637.42
2023-01-15T02:03:09.901Z,99636.97
2023-01-15T02:05:48.349Z,99640.86
2023-01-15T02:08:19.821Z,99647.23
2023-01-15T02:10:54.752Z,99647.08
2023-01-15T02:13:39.275Z,99635.23
2023-01-15T02:16:22.532Z,99610.50
2023-01-15T02:19:01.107Z,99608.33
2023-01-15T02:21:42.164Z,99606.31
2023-01-15T02:24:22.979Z,99600.85
2023-01-15T02:27:15.431Z,99593.25
2023-01-15T02:30:16.247Z,99593.30
2023-01-15T02:33:00.029Z,99596.83
2023-01-15T02:35:37.440Z,99597.64
2023-01-15T02:38:12.481Z,99586.63
2023-01-15T02:40:48.242Z,99573.20
2023-01-15T02:43:26.185Z,99571.23
2023-01-15T02:46:00.394Z,99570.60
2023-01-15T02:48:34.661Z,99560.86
2023-01-15T02:51:10.951Z,99558.09
2023-01-15T02:53:47.269Z,99552.01
2023-01-15T02:56:24.429Z,99545.43
2023-01-15T02:59:01.977Z,99531.02
2023-01-15T03:01:40.561Z,99525.82
2023-01-15T03:04:17.662Z,99517.46
2023-01-15T03:06:56.228Z,99524.14
2023-01-15T03:09:31.029Z,99517.83
2023-01-15T03:12:09.505Z,99515.40
2023-01-15T03:14:50.623Z,99510.47
2023-01-15T03:17:25.078Z,99518.15
2023-01-15T03:20:05.174Z,99522.20
2023-01-15T03:22:45.389Z,99511.04
2023-01-15T03:25:22.281Z,99507.27
2023-01-15T03:28:00.811Z,99496.88
2023-01-15T03:30:34.828Z,99497.10
2023-01-15T03:33:11.551Z,99494.24
2023-01-15T03:35:49.455Z,99486.68
2023-01-15T03:38:53.273Z,99477.68
2023-01-15T03:42:03.427Z,99480.70
2023-01-15T03:44:44.229Z,99481.52
2023-01-15T03:47:28.457Z,99483.57
2023-01-15T03:50:10.263Z,99474.84
2023-01-15T03:52:56.290Z,99489.61
2023-01-15T03:55:37.778Z,99482.48
2023-01-15T03:58:18.694Z,99486.84
2023-01-15T04:00:54.730Z,99486.56
2023-01-15T04:03:28.385Z,99486.69
2023-01-15T04:06:03.195Z,99492.40
2023-01-15T04:08:39.975Z,99475.96
2023-01-15T04:11:13.335Z,99460.08
2023-01-15T04:13:49.136Z,99446.98
2023-01-15T04:16:54.319Z,99451.72
2023-01-15T04:19:30.469Z,99457.81
2023-01-15T04:22:10.403Z,99453.65
2023-01-15T04:24:41.282Z,99449.41
2023-01-15T04:27:12.185Z,99448.54
2023-01-15T04:29:45.794Z,99444.02
2023-01-15T04:32:19.888Z,99441.61
2023-01-15T04:34:52.934Z,99436.63
2023-01-15T04:37:24.415Z,99424.02
2023-01-15T04:39:57.399Z,99421.10
2023-01-15T04:42:48.450Z,99418.13
2023-01-15T04:45:19.909Z,99419.45
2023-01-15T04:47:49.532Z,99417.34
2023-01-15T04:50:21.634Z,99411.64
2023-01-15T04:52:53.220Z,99400.14
2023-01-15T04:55:26.363Z,99400.63
2023-01-15T04:57:58.451Z,99395.02
2023-01-15T05:00:30.485Z,99390.12
2023-01-15T05:03:03.140Z,99390.04
2023-01-15T05:05:35.930Z,99394.06
2023-01-15T05:08:09.350Z,99389.57
2023-01-15T05:10:39.601Z,99379.11
2023-01-15T05:13:11.337Z,99372.08
2023-01-15T05:15:47.972Z,99370.00
2023-01-15T05:18:21.826Z,99369.16
2023-01-15T05:20:54.633Z,99366.95
2023-01-15T05:23:27.175Z,99367.44
2023-01-15T05:25:57.969Z,99365.56
2023-01-15T05:28:29.816Z,99361.82
2023-01-15T05:30:59.929Z,99350.98
2023-01-15T05:33:34.259Z,99350.00
2023-01-15T05:36:09.329Z,99346.67
2023-01-15T05:38:44.354Z,99345.31
2023-01-15T05:41:37.338Z,99340.95
2023-01-15T05:44:11.386Z,99345.15
2023-01-15T05:46:46.024Z,99340.91
2023-01-15T05:49:20.526Z,99346.05
2023-01-15T05:51:54.562Z,99347.01
2023-01-15T05:54:27.682Z,99341.42
2023-01-15T05:57:01.277Z,99337.75
2023-01-15T05:59:34.201Z,99337.17
2023-01-15T06:02:05.539Z,99332.64
2023-01-15T06:04:36.634Z,99330.93
2023-01-15T06:07:08.193Z,99331.45
2023-01-15T06:09:39.483Z,99334.07
2023-01-15T06:12:10.871Z,99337.25
2023-01-15T06:14:43.371Z,99334.23
2023-01-15T06:17:14.471Z,99333.09
2023-01-15T06:19:45.549Z,99333.73
2023-01-15T06:22:18.263Z,99335.70
2023-01-15T06:24:49.980Z,99332.41
2023-01-15T06:27:20.896Z,99331.67
2023-01-15T06:29:53.195Z,99334.45
2023-01-15T06:32:25.165Z,99339.13
2023-01-15T06:34:58.154Z,99344.93
2023-01-15T06:37:29.450Z,99340.94
2023-01-15T06:40:01.262Z,99339.23
2023-01-15T06:42:49.983Z,99337.35
2023-01-15T06:45:39.496Z,99337.55
2023-01-15T06:48:11.550Z,99337.18
2023-01-15T06:50:43.774Z,99335.70
2023-01-15T06:53:16.335Z,99331.81
2023-01-15T06:55:47.246Z,99333.36
2023-01-15T06:58:21.615Z,99334.36
2023-01-15T07:00:56.118Z,99329.52
2023-01-15T07:03:28.275Z,99326.29
2023-01-15T07:06:06.267Z,99321.24
2023-01-15T07:08:39.742Z,99314.22
2023-01-15T07:11:18.691Z,99312.50
2023-01-15T07:13:49.863Z,99314.20
2023-01-15T07:16:28.013Z,99314.20
2023-01-15T07:19:01.243Z,99307.27
2023-01-15T07:21:34.030Z,99311.70
2023-01-15T07:24:05.210Z,99308.89
2023-01-15T07:26:41.190Z,99303.34
2023-01-15T07:29:14.867Z,99302.53
2023-01-15T07:31:44.886Z,99302.09
2023-01-15T07:34:15.908Z,99302.66
2023-01-15T07:36:48.425Z,99303.18
2023-01-15T07:39:20.293Z,99304.92
2023-01-15T07:42:08.842Z,99301.48
2023-01-15T07:44:58.316Z,99305.34
2023-01-15T07:47:48.013Z,99306.15
2023-01-15T07:50:30.551Z,99302.81
2023-01-15T07:53:02.792Z,99300.49
2023-01-15T07:55:35.480Z,99302.64
2023-01-15T07:58:07.422Z,99298.09
2023-01-15T08:00:42.010Z,99301.34
2023-01-15T08:03:13.978Z,99296.85
2023-01-15T08:05:45.397Z,99298.77
2023-01-15T08:08:21.631Z,99301.46
2023-01-15T08:11:18.979Z,99302.67
2023-01-15T08:14:06.814Z,99302.73
2023-01-15T08:16:38.433Z,99306.30
2023-01-15T08:19:09.200Z,99296.61
2023-01-15T08:21:41.465Z,99296.71
2023-01-15T08:24:13.419Z,99297.30
2023-01-15T08:26:43.972Z,99298.11
2023-01-15T08:29:15.715Z,99295.27
2023-01-15T08:31:50.035Z,99297.13
2023-01-15T08:34:20.600Z,99296.45
2023-01-15T08:37:00.059Z,99300.01
2023-01-15T08:39:30.869Z,99296.05
2023-01-15T08:42:01.710Z,99294.33
2023-01-15T08:44:34.463Z,99295.48
2023-01-15T08:47:04.750Z,99299.76
2023-01-15T08:49:36.128Z,99301.77
2023-01-15T08:52:08.356Z,99299.69
2023-01-15T08:54:42.149Z,99301.63
2023-01-15T08:57:13.903Z,99302.36
2023-01-15T08:59:46.945Z,99302.92
2023-01-15T09:02:19.404Z,99297.59
2023-01-15T09:04:51.796Z,99296.78
2023-01-15T09:07:23.104Z,99298.04
2023-01-15T09:09:55.859Z,99295.52
2023-01-15T09:12:27.728Z,99295.50
2023-01-15T09:15:03.133Z,99295.92
2023-01-15T09:17:39.884Z,99293.02
2023-01-15T09:20:15.515Z,99289.04
2023-01-15T09:22:45.469Z,99291.27
2023-01-15T09:25:19.951Z,99292.31
2023-01-15T09:27:55.642Z,99289.15
2023-01-15T09:30:29.284Z,99283.20
2023-01-15T09:33:00.692Z,99278.25
2023-01-15T09:35:32.473Z,99277.56
2023-01-15T09:38:05.851Z,99270.08
2023-01-15T09:40:49.692Z,99275.09
2023-01-15T09:43:45.026Z,99271.06
2023-01-15T09:46:27.854Z,99272.61
2023-01-15T09:49:10.996Z,99268.38
2023-01-15T09:51:51.847Z,99267.52
2023-01-15T09:54:39.885Z,99270.36
2023-01-15T09:57:17.546Z,99265.05
2023-01-15T09:59:54.385Z,99266.27
2023-01-15T10:02:35.503Z,99265.05
2023-01-15T10:05:14.773Z,99272.55
2023-01-15T10:07:54.631Z,99269.01
2023-01-15T10:10:33.427Z,99266.73
2023-01-15T10:13:17.664Z,99259.92
2023-01-15T10:15:50.329Z,99260.90
2023-01-15T10:18:24.435Z,99257.45
2023-01-15T10:21:12.076Z,99259.23
2023-01-15T10:23:52.878Z,99257.89
2023-01-15T10:26:36.172Z,99262.20
2023-01-15T10:29:17.519Z,99261.58
2023-01-15T10:31:56.984Z,99258.15
2023-01-15T10:35:08.709Z,99263.98
2023-01-15T10:37:45.917Z,99263.35
2023-01-15T10:40:38.125Z,99263.00
2023-01-15T10:43:19.024Z,99266.19
2023-01-15T10:45:57.166Z,99264.33
2023-01-15T10:48:34.843Z,99266.38
2023-01-15T10:51:15.477Z,99262.06
2023-01-15T10:53:53.446Z,99266.08
2023-01-15T10:56:36.389Z,99265.40
2023-01-15T10:59:17.535Z,99270.44
2023-01-15T11:01:50.548Z,99270.27
2023-01-15T11:04:21.617Z,99270.96
2023-01-15T11:06:53.390Z,99268.63
2023-01-15T11:09:30.799Z,99267.06
2023-01-15T11:12:37.318Z,99264.55
2023-01-15T11:15:42.089Z,99289.76
2023-01-15T11:18:43.962Z,99332.46
2023-01-15T11:21:24.676Z,99338.84
2023-01-15T11:24:00.675Z,99346.42
2023-01-15T11:26:35.721Z,99354.60
2023-01-15T11:29:15.571Z,99360.42
2023-01-15T11:31:47.723Z,99358.65
2023-01-15T11:34:23.577Z,99355.86
2023-01-15T11:37:06.740Z,99355.46
2023-01-15T11:39:38.734Z,99357.06
2023-01-15T11:42:36.675Z,99359.94
2023-01-15T11:45:36.147Z,99356.69
2023-01-15T11:48:46.159Z,99364.72
2023-01-15T11:51:20.682Z,99370.27
2023-01-15T11:54:00.913Z,99374.83
2023-01-15T11:56:36.967Z,99382.71
2023-01-15T11:59:14.842Z,99384.80
2023-01-15T12:02:00.275Z,99393.37
2023-01-15T12:04:47.601Z,99386.73
2023-01-15T12:07:40.791Z,99382.34
2023-01-15T12:10:41.726Z,99384.28
2023-01-15T12:13:30.247Z,99388.88
2023-01-15T12:16:11.122Z,99396.60
2023-01-15T12:19:07.088Z,99391.80
2023-01-15T12:22:11.846Z,99389.70
2023-01-15T12:25:31.764Z,99393.66
2023-01-15T12:28:08.652Z,99404.65
2023-01-15T12:30:47.621Z,99407.14
2023-01-15T12:33:36.760Z,99413.78
2023-01-15T12:36:16.758Z,99422.90
2023-01-15T12:38:52.211Z,99427.30
2023-01-15T12:41:45.985Z,99432.73
2023-01-15T12:44:40.367Z,99428.20
2023-01-15T12:47:18.390Z,99428.77
2023-01-15T12:49:56.873Z,99428.77
2023-01-15T12:52:34.897Z,99431.94
2023-01-15T12:55:28.099Z,99437.15
2023-01-15T12:58:03.143Z,99446.27
2023-01-15T13:00:41.890Z,99450.21
2023-01-15T13:03:25.643Z,99459.35
2023-01-15T13:06:03.141Z,99464.80
2023-01-15T13:08:38.849Z,99458.53
2023-01-15T13:11:20.366Z,99465.10
2023-01-15T13:14:01.113Z,99474.13
2023-01-15T13:16:47.130Z,99479.95
2023-01-15T13:19:32.011Z,99485.08
2023-01-15T13:22:13.033Z,99484.55
2023-01-15T13:25:07.301Z,99486.16
2023-01-15T13:27:55.123Z,99490.82
2023-01-15T13:30:40.996Z,99499.31
2023-01-15T13:33:27.090Z,99501.05
2023-01-15T13:36:10.838Z,99489.48
2023-01-15T13:38:46.931Z,99487.84
2023-01-15T13:41:37.823Z,99494.33
2023-01-15T13:44:19.172Z,99496.75
2023-01-15T13:47:08.598Z,99498.08
2023-01-15T13:49:47.380Z,99503.40
2023-01-15T13:52:29.220Z,99508.44
2023-01-15T13:55:11.609Z,99513.11
2023-01-15T13:57:48.351Z,99516.92
2023-01-15T14:00:36.603Z,99515.39
2023-01-15T14:03:29.349Z,99513.33
2023-01-15T14:06:04.340Z,99514.54
2023-01-15T14:08:44.147Z,99518.91
2023-01-15T14:11:46.698Z,99514.43
2023-01-15T14:15:04.006Z,99510.72
2023-01-15T14:17:57.616Z,99516.68
2023-01-15T14:20:57.244Z,99511.80
2023-01-15T14:23:53.193Z,99501.10
2023-01-15T14:26:34.727Z,99500.06
2023-01-15T14:29:28.229Z,99514.94
2023-01-15T14:32:24.967Z,99514.83
2023-01-15T14:35:14.741Z,99507.86
2023-01-15T14:37:54.709Z,99531.10
2023-01-15T14:40:30.823Z,99530.23
2023-01-15T14:43:10.395Z,99540.20
2023-01-15T14:45:46.304Z,99544.66
2023-01-15T14:48:35.283Z,99525.84
2023-01-15T14:51:14.003Z,99524.09
2023-01-15T14:53:49.865Z,99520.79
2023-01-15T14:56:32.593Z,99513.78
2023-01-15T14:59:09.942Z,99513.04
2023-01-15T15:01:51.534Z,99515.46
2023-01-15T15:04:33.063Z,99520.58
2023-01-15T15:07:13.468Z,99512.65
2023-01-15T15:09:50.579Z,99511.85
2023-01-15T15:12:35.503Z,99508.85
2023-01-15T15:15:12.420Z,99514.80
2023-01-15T15:17:58.383Z,99520.59
2023-01-15T15:20:38.914Z,99532.49
2023-01-15T15:23:19.995Z,99533.13
2023-01-15T15:26:00.116Z,99529.76
2023-01-15T15:28:31.760Z,99526.39
2023-01-15T15:31:06.146Z,99512.28
2023-01-15T15:33:42.344Z,99516.46
2023-01-15T15:36:16.061Z,99509.95
2023-01-15T15:38:55.242Z,99503.18
2023-01-15T15:41:59.411Z,99494.91
2023-01-15T15:44:59.144Z,99474.73
2023-01-15T15:48:01.135Z,99492.96
2023-01-15T15:50:33.829Z,99501.95
2023-01-15T15:53:06.591Z,99502.80
2023-01-15T15:55:44.076Z,99494.85
2023-01-15T15:58:23.710Z,99498.73
2023-01-15T16:00:57.945Z,99505.23
2023-01-15T16:03:34.109Z,99513.99
2023-01-15T16:06:10.919Z,99527.66
2023-01-15T16:08:40.663Z,99541.01
2023-01-15T16:11:15.653Z,99540.79
2023-01-15T16:13:52.005Z,99541.30
2023-01-15T16:16:28.673Z,99547.40
2023-01-15T16:19:06.600Z,99541.48
2023-01-15T16:21:41.103Z,99549.24
2023-01-15T16:24:28.387Z,99544.20
2023-01-15T16:27:07.871Z,99539.61
2023-01-15T16:29:43.916Z,99535.47
2023-01-15T16:32:25.511Z,99543.14
2023-01-15T16:35:05.519Z,99553.57
2023-01-15T16:37:40.939Z,99560.09
2023-01-15T16:40:27.742Z,99565.31
2023-01-15T16:43:15.835Z,99556.62
2023-01-15T16:46:03.435Z,99553.52
2023-01-15T16:48:37.848Z,99553.66
2023-01-15T16:51:33.096Z,99560.77
2023-01-15T16:54:09.237Z,99560.55
2023-01-15T16:56:56.548Z,99564.37
2023-01-15T17:00:03.580Z,99573.12
2023-01-15T17:02:45.649Z,99581.84
2023-01-15T17:05:48.847Z,99586.63
2023-01-15T17:08:24.434Z,99608.17
2023-01-15T17:10:58.683Z,99632.10
2023-01-15T17:13:34.666Z,99633.48
2023-01-15T17:16:16.726Z,99646.19
2023-01-15T17:18:51.302Z,99664.43
2023-01-15T17:21:30.008Z,99664.05
2023-01-15T17:24:06.681Z,99660.86
2023-01-15T17:26:39.944Z,99658.98
2023-01-15T17:29:14.056Z,99657.27
2023-01-15T17:31:46.372Z,99655.64
2023-01-15T17:34:24.621Z,99661.41
2023-01-15T17:36:56.469Z,99657.00
2023-01-15T17:39:29.069Z,99670.44
2023-01-15T17:42:00.071Z,99683.44
2023-01-15T17:44:31.734Z,99679.68
2023-01-15T17:47:04.238Z,99687.47
2023-01-15T17:49:38.843Z,99696.08
2023-01-15T17:52:19.111Z,99691.38
2023-01-15T17:55:11.380Z,99686.41
2023-01-15T17:57:59.988Z,99693.02
2023-01-15T18:01:06.182Z,99681.59
2023-01-15T18:03:57.113Z,99690.84
2023-01-15T18:06:33.089Z,99678.66
2023-01-15T18:09:08.254Z,99662.90
2023-01-15T18:11:41.696Z,99664.27
2023-01-15T18:14:14.545Z,99670.00
2023-01-15T18:16:46.848Z,99672.10
2023-01-15T18:19:17.877Z,99672.13
2023-01-15T18:21:50.803Z,99682.66
2023-01-15T18:24:22.365Z,99679.16
2023-01-15T18:26:56.460Z,99679.63
2023-01-15T18:29:27.383Z,99681.52
2023-01-15T18:32:01.323Z,99672.73
2023-01-15T18:34:33.889Z,99671.23
2023-01-15T18:37:07.255Z,99674.57
2023-01-15T18:39:40.297Z,99670.36
2023-01-15T18:42:29.965Z,99672.73
2023-01-15T18:45:20.580Z,99675.21
2023-01-15T18:47:52.819Z,99679.71
2023-01-15T18:50:26.021Z,99687.34
2023-01-15T18:53:01.222Z,99684.42
2023-01-15T18:55:33.960Z,99683.42
2023-01-15T18:58:05.718Z,99683.45
2023-01-15T19:00:40.135Z,99685.86
2023-01-15T19:03:14.732Z,99690.77
2023-01-15T19:05:47.133Z,99695.55
2023-01-15T19:08:24.612Z,99704.81
2023-01-15T19:10:56.607Z,99703.03
2023-01-15T19:13:28.244Z,99690.29
2023-01-15T19:16:17.595Z,99682.65
2023-01-15T19:18:53.645Z,99691.02
2023-01-15T19:21:25.883Z,99690.64
2023-01-15T19:24:03.401Z,99690.04
2023-01-15T19:26:36.673Z,99691.19
2023-01-15T19:29:08.047Z,99684.36
2023-01-15T19:31:40.431Z,99689.86
2023-01-15T19:34:33.171Z,99682.86
2023-01-15T19:37:09.377Z,99687.29
2023-01-15T19:39:41.247Z,99688.23
2023-01-15T19:42:32.137Z,99693.41
2023-01-15T19:45:22.057Z,99689.09
2023-01-15T19:48:11.895Z,99688.83
2023-01-15T19:50:47.839Z,99703.31
2023-01-15T19:53:19.280Z,99700.44
2023-01-15T19:55:52.714Z,99691.60
2023-01-15T19:58:24.993Z,99688.55
2023-01-15T20:00:58.382Z,99679.54
2023-01-15T20:03:32.374Z,99689.92
2023-01-15T20:06:03.767Z,99684.12
2023-01-15T20:08:38.519Z,99684.65
2023-01-15T20:11:10.825Z,99694.80
2023-01-15T20:13:54.419Z,99699.06
2023-01-15T20:16:26.546Z,99697.50
2023-01-15T20:18:59.478Z,99699.84
2023-01-15T20:21:31.261Z,99703.86
2023-01-15T20:24:02.667Z,99708.55
2023-01-15T20:26:36.940Z,99708.42
2023-01-15T20:29:10.715Z,99708.93
2023-01-15T20:31:45.970Z,99713.31
2023-01-15T20:34:20.723Z,99712.09
2023-01-15T20:36:53.199Z,99713.19
2023-01-15T20:39:24.934Z,99714.46
2023-01-15T20:42:16.652Z,99713.24
2023-01-15T20:44:55.807Z,99709.54
2023-01-15T20:47:47.210Z,99711.70
2023-01-15T20:50:20.553Z,99704.91
2023-01-15T20:52:53.480Z,99700.71
2023-01-15T20:55:30.149Z,99702.10
2023-01-15T20:58:04.222Z,99698.96
2023-01-15T21:00:36.198Z,99703.75
2023-01-15T21:03:10.925Z,99701.13
2023-01-15T21:05:43.643Z,99705.02
2023-01-15T21:08:20.980Z,99706.62
2023-01-15T21:10:55.645Z,99700.48
2023-01-15T21:13:30.763Z,99701.38
2023-01-15T21:16:06.003Z,99706.91
2023-01-15T21:18:36.620Z,99707.58
2023-01-15T21:21:12.815Z,99701.15
2023-01-15T21:23:45.270Z,99705.02
2023-01-15T21:26:19.295Z,99703.05
2023-01-15T21:28:55.270Z,99703.86
2023-01-15T21:31:26.659Z,99700.89
2023-01-15T21:34:04.951Z,99698.02
2023-01-15T21:36:35.650Z,99701.63
2023-01-15T21:39:10.918Z,99703.18
2023-01-15T21:42:03.336Z,99702.58
2023-01-15T21:44:50.867Z,99698.27
2023-01-15T21:47:23.474Z,99701.30
2023-01-15T21:49:55.564Z,99699.94
2023-01-15T21:52:30.396Z,99698.73
2023-01-15T21:55:02.540Z,99698.23
2023-01-15T21:57:36.012Z,99700.27
2023-01-15T22:00:16.409Z,99702.30
2023-01-15T22:02:48.592Z,99701.54
2023-01-15T22:05:21.648Z,99698.11
2023-01-15T22:07:53.456Z,99701.30
2023-01-15T22:10:25.810Z,99696.89
2023-01-15T22:12:57.458Z,99696.33
2023-01-15T22:15:31.964Z,99697.67
2023-01-15T22:18:04.840Z,99695.46
2023-01-15T22:20:38.583Z,99697.88
2023-01-15T22:23:10.352Z,99694.54
2023-01-15T22:25:50.120Z,99691.20
2023-01-15T22:28:30.203Z,99688.74
2023-01-15T22:31:20.735Z,99688.05
2023-01-15T22:33:53.562Z,99685.79
2023-01-15T22:36:26.591Z,99688.20
2023-01-15T22:39:02.156Z,99684.71
2023-01-15T22:41:52.640Z,99693.61
2023-01-15T22:44:24.375Z,99692.64
2023-01-15T22:46:57.322Z,99692.28
2023-01-15T22:49:32.565Z,99687.60
2023-01-15T22:52:06.293Z,99688.51
2023-01-15T22:54:36.985Z,99685.81
2023-01-15T22:57:11.471Z,99684.20
2023-01-15T22:59:45.333Z,99686.86
2023-01-15T23:02:39.177Z,99683.99
2023-01-15T23:05:12.410Z,99682.04
2023-01-15T23:07:45.001Z,99682.11
2023-01-15T23:10:18.252Z,99689.54
2023-01-15T23:12:51.214Z,99690.99
2023-01-15T23:15:24.560Z,99690.98
2023-01-15T23:17:56.756Z,99688.06
2023-01-15T23:20:30.069Z,99680.31
2023-01-15T23:23:01.569Z,99679.17
2023-01-15T23:25:32.126Z,99680.16
2023-01-15T23:28:05.536Z,99682.64
2023-01-15T23:30:38.456Z,99682.87
2023-01-15T23:33:10.986Z,99683.84
2023-01-15T23:35:45.749Z,99677.82
2023-01-15T23:38:20.350Z,99675.42
2023-01-15T23:40:52.111Z,99678.15
2023-01-15T23:43:41.527Z,99676.91
2023-01-15T23:46:36.776Z,99670.08
2023-01-15T23:49:10.185Z,99669.04
2023-01-15T23:51:41.500Z,99669.95
2023-01-15T23:54:13.876Z,99671.05
2023-01-15T23:56:46.272Z,99669.90
2023-01-15T23:59:21.058Z,99672.43
